Brantingham, New York
Current Conditions -  °F | °C
As of 12:53 AM on Monday 26 Jan 2015 (Local Time) from KRME Reporting Station
Clear Clear  
Wind Chill:   Ceiling: Unl
Heat Index:   Visibility: 10mi
Dew Point: -4°   Wind: 0mph
Humidity: 76%   Direction: NA
Pressure: 30.11"   Gusts: NA
Location:  43.69°N, 75.29°W
Report Text: KRME 260553Z 00000KT 10SM CLR M17/M20 A3011 RMK AO2 SLP204 T11671200 11122 21172 50010
Loading
Personal Weather Stations






























Interactive Weather Map New forecast layout! Learn more

10-Day Weather Forecast

Advertisements
Track Severe Weather on mobile